sensor_id;sensor_type;location;lat;lon;timestamp;pressure;altitude;pressure_sealevel;temperature;humidity
70968;BME280;58629;48.808;8.820;2023-01-31T00:00:52;98038.63;;;1.46;93.16
70968;BME280;58629;48.808;8.820;2023-01-31T00:03:18;98034.91;;;1.47;93.20
70968;BME280;58629;48.808;8.820;2023-01-31T00:05:43;98035.69;;;1.48;92.57
70968;BME280;58629;48.808;8.820;2023-01-31T00:08:08;98037.53;;;1.47;92.81
70968;BME280;58629;48.808;8.820;2023-01-31T00:10:34;98033.06;;;1.48;92.49
70968;BME280;58629;48.808;8.820;2023-01-31T00:13:00;98031.53;;;1.47;92.45
70968;BME280;58629;48.808;8.820;2023-01-31T00:15:25;98037.09;;;1.45;92.47
70968;BME280;58629;48.808;8.820;2023-01-31T00:17:50;98028.19;;;1.46;92.48
70968;BME280;58629;48.808;8.820;2023-01-31T00:20:16;98025.88;;;1.45;92.40
70968;BME280;58629;48.808;8.820;2023-01-31T00:22:42;98023.94;;;1.42;92.51
70968;BME280;58629;48.808;8.820;2023-01-31T00:25:08;98028.81;;;1.43;92.38
70968;BME280;58629;48.808;8.820;2023-01-31T00:27:33;98025.00;;;1.41;92.19
70968;BME280;58629;48.808;8.820;2023-01-31T00:30:01;98028.69;;;1.40;91.87
70968;BME280;58629;48.808;8.820;2023-01-31T00:32:26;98026.72;;;1.37;91.84
70968;BME280;58629;48.808;8.820;2023-01-31T00:34:54;98017.72;;;1.34;92.19
70968;BME280;58629;48.808;8.820;2023-01-31T00:37:20;98020.09;;;1.39;91.93
70968;BME280;58629;48.808;8.820;2023-01-31T00:39:45;98019.66;;;1.37;91.95
70968;BME280;58629;48.808;8.820;2023-01-31T00:42:11;98017.59;;;1.31;92.27
70968;BME280;58629;48.808;8.820;2023-01-31T00:44:36;98018.25;;;1.28;92.33
70968;BME280;58629;48.808;8.820;2023-01-31T00:47:02;98016.72;;;1.27;92.48
70968;BME280;58629;48.808;8.820;2023-01-31T00:49:27;98011.06;;;1.25;92.83
70968;BME280;58629;48.808;8.820;2023-01-31T00:51:52;98006.59;;;1.25;92.60
70968;BME280;58629;48.808;8.820;2023-01-31T00:54:20;98010.78;;;1.38;92.01
70968;BME280;58629;48.808;8.820;2023-01-31T00:56:46;98009.44;;;1.32;91.95
70968;BME280;58629;48.808;8.820;2023-01-31T00:59:11;98011.97;;;1.29;92.40
70968;BME280;58629;48.808;8.820;2023-01-31T01:01:36;98004.53;;;1.31;92.36
70968;BME280;58629;48.808;8.820;2023-01-31T01:04:02;98005.97;;;1.28;92.53
70968;BME280;58629;48.808;8.820;2023-01-31T01:06:28;98007.28;;;1.34;92.55
70968;BME280;58629;48.808;8.820;2023-01-31T01:08:54;98003.25;;;1.25;93.52
70968;BME280;58629;48.808;8.820;2023-01-31T01:11:22;98005.53;;;1.26;93.67
70968;BME280;58629;48.808;8.820;2023-01-31T01:13:48;98009.75;;;1.31;94.13
70968;BME280;58629;48.808;8.820;2023-01-31T01:16:16;98005.13;;;1.36;94.53
70968;BME280;58629;48.808;8.820;2023-01-31T01:18:43;97996.94;;;1.38;94.50
70968;BME280;58629;48.808;8.820;2023-01-31T01:21:19;98004.25;;;1.44;94.77
70968;BME280;58629;48.808;8.820;2023-01-31T01:23:45;98004.03;;;1.49;94.67
70968;BME280;58629;48.808;8.820;2023-01-31T01:26:23;97998.81;;;1.49;94.79
70968;BME280;58629;48.808;8.820;2023-01-31T01:28:52;97996.09;;;1.46;94.97
70968;BME280;58629;48.808;8.820;2023-01-31T01:31:19;98003.91;;;1.46;95.23
70968;BME280;58629;48.808;8.820;2023-01-31T01:33:46;98004.34;;;1.48;94.77
70968;BME280;58629;48.808;8.820;2023-01-31T01:36:13;97999.47;;;1.46;94.99
70968;BME280;58629;48.808;8.820;2023-01-31T01:38:43;98003.41;;;1.52;94.46
70968;BME280;58629;48.808;8.820;2023-01-31T01:41:10;97996.97;;;1.50;94.76
70968;BME280;58629;48.808;8.820;2023-01-31T01:43:49;97995.84;;;1.39;94.71
70968;BME280;58629;48.808;8.820;2023-01-31T01:46:26;97992.38;;;1.35;95.07
70968;BME280;58629;48.808;8.820;2023-01-31T01:49:07;97988.88;;;1.31;95.22
70968;BME280;58629;48.808;8.820;2023-01-31T01:51:37;97994.00;;;1.27;95.88
70968;BME280;58629;48.808;8.820;2023-01-31T01:54:07;98001.38;;;1.25;96.01
70968;BME280;58629;48.808;8.820;2023-01-31T01:56:36;97995.00;;;1.23;95.88
70968;BME280;58629;48.808;8.820;2023-01-31T01:59:07;98001.59;;;1.20;96.40
70968;BME280;58629;48.808;8.820;2023-01-31T02:01:35;98007.25;;;1.22;95.75
70968;BME280;58629;48.808;8.820;2023-01-31T02:04:03;98006.38;;;1.18;95.70
70968;BME280;58629;48.808;8.820;2023-01-31T02:06:29;98008.34;;;1.21;95.01
70968;BME280;58629;48.808;8.820;2023-01-31T02:08:55;98012.91;;;1.24;95.14
70968;BME280;58629;48.808;8.820;2023-01-31T02:11:28;98013.56;;;1.21;95.27
70968;BME280;58629;48.808;8.820;2023-01-31T02:14:07;98001.06;;;1.15;95.42
70968;BME280;58629;48.808;8.820;2023-01-31T02:16:33;98000.81;;;1.08;95.37
70968;BME280;58629;48.808;8.820;2023-01-31T02:18:59;98000.03;;;1.07;96.06
70968;BME280;58629;48.808;8.820;2023-01-31T02:21:38;97999.59;;;1.05;95.52
70968;BME280;58629;48.808;8.820;2023-01-31T02:30:04;98022.63;;;0.91;96.29
70968;BME280;58629;48.808;8.820;2023-01-31T02:44:24;98021.41;;;0.88;96.25
70968;BME280;58629;48.808;8.820;2023-01-31T02:50:08;98021.28;;;0.85;96.03
70968;BME280;58629;48.808;8.820;2023-01-31T02:52:49;98027.56;;;0.84;95.92
70968;BME280;58629;48.808;8.820;2023-01-31T02:55:23;98026.06;;;0.83;95.84
70968;BME280;58629;48.808;8.820;2023-01-31T02:58:11;98019.75;;;0.84;95.45
70968;BME280;58629;48.808;8.820;2023-01-31T03:00:40;98019.31;;;0.82;95.16
70968;BME280;58629;48.808;8.820;2023-01-31T03:03:11;98026.38;;;0.81;94.80
70968;BME280;58629;48.808;8.820;2023-01-31T03:05:37;98023.97;;;0.76;95.22
70968;BME280;58629;48.808;8.820;2023-01-31T03:08:04;98021.97;;;0.73;95.44
70968;BME280;58629;48.808;8.820;2023-01-31T03:13:38;98042.78;;;0.82;95.46
70968;BME280;58629;48.808;8.820;2023-01-31T03:16:19;98033.75;;;0.79;95.41
70968;BME280;58629;48.808;8.820;2023-01-31T03:19:20;98022.25;;;0.80;95.85
70968;BME280;58629;48.808;8.820;2023-01-31T03:21:55;98030.84;;;0.81;95.25
70968;BME280;58629;48.808;8.820;2023-01-31T03:24:24;98029.28;;;0.80;95.07
70968;BME280;58629;48.808;8.820;2023-01-31T03:26:54;98029.28;;;0.80;95.28
70968;BME280;58629;48.808;8.820;2023-01-31T03:29:22;98028.97;;;0.81;94.84
70968;BME280;58629;48.808;8.820;2023-01-31T03:31:58;98035.28;;;0.80;94.68
70968;BME280;58629;48.808;8.820;2023-01-31T03:34:25;98038.97;;;0.79;94.81
70968;BME280;58629;48.808;8.820;2023-01-31T03:39:41;98046.91;;;0.83;94.80
70968;BME280;58629;48.808;8.820;2023-01-31T03:42:15;98048.00;;;0.82;94.93
70968;BME280;58629;48.808;8.820;2023-01-31T03:45:05;98055.19;;;0.85;94.90
70968;BME280;58629;48.808;8.820;2023-01-31T03:47:37;98055.19;;;0.85;95.09
70968;BME280;58629;48.808;8.820;2023-01-31T03:50:11;98052.69;;;0.88;94.82
70968;BME280;58629;48.808;8.820;2023-01-31T03:52:43;98054.53;;;0.88;94.79
70968;BME280;58629;48.808;8.820;2023-01-31T03:55:17;98055.75;;;0.91;94.97
70968;BME280;58629;48.808;8.820;2023-01-31T03:57:44;98048.38;;;0.93;94.79
70968;BME280;58629;48.808;8.820;2023-01-31T04:00:14;98053.59;;;0.93;94.35
70968;BME280;58629;48.808;8.820;2023-01-31T04:02:40;98049.88;;;0.94;94.33
70968;BME280;58629;48.808;8.820;2023-01-31T04:05:11;98052.94;;;0.96;94.31
70968;BME280;58629;48.808;8.820;2023-01-31T04:07:38;98063.19;;;1.01;93.96
70968;BME280;58629;48.808;8.820;2023-01-31T04:10:08;98070.22;;;1.00;93.88
70968;BME280;58629;48.808;8.820;2023-01-31T04:12:36;98072.50;;;1.02;93.83
70968;BME280;58629;48.808;8.820;2023-01-31T04:15:03;98065.13;;;1.04;93.67
70968;BME280;58629;48.808;8.820;2023-01-31T04:17:29;98068.84;;;1.03;93.98
70968;BME280;58629;48.808;8.820;2023-01-31T04:19:54;98079.13;;;0.99;93.86
70968;BME280;58629;48.808;8.820;2023-01-31T04:22:20;98072.72;;;0.97;93.55
70968;BME280;58629;48.808;8.820;2023-01-31T04:24:45;98069.56;;;0.91;93.85
70968;BME280;58629;48.808;8.820;2023-01-31T04:27:10;98075.84;;;0.90;94.09
70968;BME280;58629;48.808;8.820;2023-01-31T04:29:35;98066.50;;;0.89;94.49
70968;BME280;58629;48.808;8.820;2023-01-31T04:32:01;98070.19;;;0.88;94.66
70968;BME280;58629;48.808;8.820;2023-01-31T04:34:26;98068.34;;;0.88;94.52
70968;BME280;58629;48.808;8.820;2023-01-31T04:36:51;98070.94;;;0.88;94.53
70968;BME280;58629;48.808;8.820;2023-01-31T04:39:16;98066.25;;;0.82;94.27
70968;BME280;58629;48.808;8.820;2023-01-31T04:41:42;98068.53;;;0.83;94.96
70968;BME280;58629;48.808;8.820;2023-01-31T04:44:07;98069.63;;;0.82;94.88
70968;BME280;58629;48.808;8.820;2023-01-31T04:46:32;98067.34;;;0.81;95.33
70968;BME280;58629;48.808;8.820;2023-01-31T04:48:58;98071.00;;;0.80;95.08
70968;BME280;58629;48.808;8.820;2023-01-31T04:51:23;98068.72;;;0.78;94.91
70968;BME280;58629;48.808;8.820;2023-01-31T04:53:48;98070.88;;;0.76;95.33
70968;BME280;58629;48.808;8.820;2023-01-31T04:56:13;98060.34;;;0.73;95.35
70968;BME280;58629;48.808;8.820;2023-01-31T04:58:39;98066.28;;;0.73;95.38
70968;BME280;58629;48.808;8.820;2023-01-31T05:01:05;98059.25;;;0.74;95.51
70968;BME280;58629;48.808;8.820;2023-01-31T05:03:31;98056.19;;;0.72;95.52
70968;BME280;58629;48.808;8.820;2023-01-31T05:05:56;98056.53;;;0.70;95.36
70968;BME280;58629;48.808;8.820;2023-01-31T05:08:21;98050.75;;;0.65;94.81
70968;BME280;58629;48.808;8.820;2023-01-31T05:10:46;98055.41;;;0.59;94.38
70968;BME280;58629;48.808;8.820;2023-01-31T05:13:12;98056.78;;;0.57;94.70
70968;BME280;58629;48.808;8.820;2023-01-31T05:15:39;98049.03;;;0.48;94.64
70968;BME280;58629;48.808;8.820;2023-01-31T05:18:04;98052.91;;;0.42;94.66
70968;BME280;58629;48.808;8.820;2023-01-31T05:20:32;98055.81;;;0.41;94.61
70968;BME280;58629;48.808;8.820;2023-01-31T05:22:59;98055.25;;;0.35;94.92
70968;BME280;58629;48.808;8.820;2023-01-31T05:25:25;98048.38;;;0.31;94.77
70968;BME280;58629;48.808;8.820;2023-01-31T05:27:51;98061.41;;;0.31;95.27
70968;BME280;58629;48.808;8.820;2023-01-31T05:30:17;98056.69;;;0.24;95.02
70968;BME280;58629;48.808;8.820;2023-01-31T05:32:43;98059.63;;;0.23;95.12
70968;BME280;58629;48.808;8.820;2023-01-31T05:35:10;98047.53;;;0.18;95.32
70968;BME280;58629;48.808;8.820;2023-01-31T05:37:35;98061.19;;;0.15;95.07
70968;BME280;58629;48.808;8.820;2023-01-31T05:40:01;98057.69;;;0.11;95.36
70968;BME280;58629;48.808;8.820;2023-01-31T05:42:26;98058.63;;;0.07;95.41
70968;BME280;58629;48.808;8.820;2023-01-31T05:44:51;98067.09;;;0.04;95.46
70968;BME280;58629;48.808;8.820;2023-01-31T05:47:16;98069.84;;;-0.02;95.55
70968;BME280;58629;48.808;8.820;2023-01-31T05:49:42;98068.47;;;0.01;96.19
70968;BME280;58629;48.808;8.820;2023-01-31T05:52:07;98074.31;;;-0.02;96.45
70968;BME280;58629;48.808;8.820;2023-01-31T05:54:32;98070.63;;;-0.01;97.00
70968;BME280;58629;48.808;8.820;2023-01-31T05:56:58;98074.44;;;0.02;97.25
70968;BME280;58629;48.808;8.820;2023-01-31T05:59:23;98073.69;;;0.01;96.60
70968;BME280;58629;48.808;8.820;2023-01-31T06:01:50;98068.47;;;0.01;96.59
70968;BME280;58629;48.808;8.820;2023-01-31T06:04:15;98063.59;;;-0.01;95.92
70968;BME280;58629;48.808;8.820;2023-01-31T06:06:41;98074.31;;;-0.02;96.03
70968;BME280;58629;48.808;8.820;2023-01-31T06:09:06;98065.41;;;-0.01;96.63
70968;BME280;58629;48.808;8.820;2023-01-31T06:11:32;98068.34;;;-0.03;96.26
70968;BME280;58629;48.808;8.820;2023-01-31T06:13:57;98064.28;;;0.58;100.00
70968;BME280;58629;48.808;8.820;2023-01-31T06:16:23;98070.88;;;1.30;100.00
70968;BME280;58629;48.808;8.820;2023-01-31T06:18:48;98071.94;;;1.86;100.00
70968;BME280;58629;48.808;8.820;2023-01-31T06:21:13;98076.69;;;2.32;100.00
70968;BME280;58629;48.808;8.820;2023-01-31T06:23:40;98075.03;;;2.91;100.00
70968;BME280;58629;48.808;8.820;2023-01-31T06:26:10;98066.88;;;3.36;96.21
70968;BME280;58629;48.808;8.820;2023-01-31T06:28:35;98075.09;;;3.81;93.77
70968;BME280;58629;48.808;8.820;2023-01-31T06:31:09;98080.56;;;4.07;90.58
70968;BME280;58629;48.808;8.820;2023-01-31T06:33:34;98075.31;;;4.23;86.91
70968;BME280;58629;48.808;8.820;2023-01-31T06:36:00;98079.53;;;4.27;84.79
70968;BME280;58629;48.808;8.820;2023-01-31T06:38:26;98088.38;;;4.38;85.28
70968;BME280;58629;48.808;8.820;2023-01-31T06:40:51;98088.97;;;4.48;83.93
70968;BME280;58629;48.808;8.820;2023-01-31T06:43:17;98094.00;;;4.56;83.26
70968;BME280;58629;48.808;8.820;2023-01-31T06:45:42;98093.34;;;4.59;81.65
70968;BME280;58629;48.808;8.820;2023-01-31T06:48:11;98094.41;;;4.58;80.33
70968;BME280;58629;48.808;8.820;2023-01-31T06:50:36;98089.59;;;4.60;80.70
70968;BME280;58629;48.808;8.820;2023-01-31T06:53:02;98086.88;;;4.37;76.76
70968;BME280;58629;48.808;8.820;2023-01-31T06:55:27;98084.88;;;3.53;77.42
70968;BME280;58629;48.808;8.820;2023-01-31T06:57:53;98084.38;;;3.04;77.88
70968;BME280;58629;48.808;8.820;2023-01-31T07:00:20;98086.94;;;2.37;79.48
70968;BME280;58629;48.808;8.820;2023-01-31T07:02:45;98078.56;;;2.07;82.20
70968;BME280;58629;48.808;8.820;2023-01-31T07:05:11;98086.38;;;1.71;82.57
70968;BME280;58629;48.808;8.820;2023-01-31T07:07:36;98079.34;;;1.39;83.67
70968;BME280;58629;48.808;8.820;2023-01-31T07:10:02;98090.94;;;1.17;85.82
70968;BME280;58629;48.808;8.820;2023-01-31T07:12:27;98095.66;;;1.03;86.88
70968;BME280;58629;48.808;8.820;2023-01-31T07:14:52;98098.09;;;0.87;87.93
70968;BME280;58629;48.808;8.820;2023-01-31T07:17:17;98098.91;;;0.79;88.63
70968;BME280;58629;48.808;8.820;2023-01-31T07:19:45;98100.00;;;0.78;88.81
70968;BME280;58629;48.808;8.820;2023-01-31T07:22:10;98101.00;;;0.65;89.51
70968;BME280;58629;48.808;8.820;2023-01-31T07:24:35;98092.94;;;0.58;89.41
70968;BME280;58629;48.808;8.820;2023-01-31T07:27:00;98100.44;;;0.39;90.93
70968;BME280;58629;48.808;8.820;2023-01-31T07:29:26;98102.44;;;0.34;91.49
70968;BME280;58629;48.808;8.820;2023-01-31T07:31:53;98101.69;;;0.33;91.46
70968;BME280;58629;48.808;8.820;2023-01-31T07:34:18;98090.19;;;0.34;91.81
70968;BME280;58629;48.808;8.820;2023-01-31T07:36:47;98100.72;;;0.38;92.01
70968;BME280;58629;48.808;8.820;2023-01-31T07:39:12;98110.41;;;0.37;92.10
70968;BME280;58629;48.808;8.820;2023-01-31T07:41:37;98105.31;;;0.41;92.86
70968;BME280;58629;48.808;8.820;2023-01-31T07:44:03;98105.78;;;0.43;92.79
70968;BME280;58629;48.808;8.820;2023-01-31T07:46:28;98099.47;;;0.44;92.82
70968;BME280;58629;48.808;8.820;2023-01-31T07:48:53;98105.00;;;0.42;93.28
70968;BME280;58629;48.808;8.820;2023-01-31T07:51:19;98104.06;;;0.47;92.97
70968;BME280;58629;48.808;8.820;2023-01-31T07:53:44;98102.34;;;0.51;93.39
70968;BME280;58629;48.808;8.820;2023-01-31T07:56:12;98102.94;;;0.56;93.25
70968;BME280;58629;48.808;8.820;2023-01-31T07:58:38;98108.09;;;0.65;93.04
70968;BME280;58629;48.808;8.820;2023-01-31T08:01:04;98109.09;;;0.72;93.08
70968;BME280;58629;48.808;8.820;2023-01-31T08:03:49;98119.59;;;0.84;93.23
70968;BME280;58629;48.808;8.820;2023-01-31T08:06:14;98119.53;;;0.93;92.90
70968;BME280;58629;48.808;8.820;2023-01-31T08:08:40;98122.84;;;1.02;92.63
70968;BME280;58629;48.808;8.820;2023-01-31T08:11:06;98123.50;;;1.11;92.33
70968;BME280;58629;48.808;8.820;2023-01-31T08:13:33;98130.66;;;1.23;91.33
70968;BME280;58629;48.808;8.820;2023-01-31T08:16:00;98125.22;;;1.28;90.66
70968;BME280;58629;48.808;8.820;2023-01-31T08:18:25;98115.44;;;1.37;91.11
70968;BME280;58629;48.808;8.820;2023-01-31T08:20:51;98120.59;;;1.45;90.51
70968;BME280;58629;48.808;8.820;2023-01-31T08:23:16;98111.47;;;1.51;90.93
70968;BME280;58629;48.808;8.820;2023-01-31T08:25:41;98120.31;;;1.59;91.00
70968;BME280;58629;48.808;8.820;2023-01-31T08:28:07;98118.47;;;1.59;90.86
70968;BME280;58629;48.808;8.820;2023-01-31T08:30:32;98114.88;;;1.64;90.42
70968;BME280;58629;48.808;8.820;2023-01-31T08:32:58;98116.50;;;1.68;89.86
70968;BME280;58629;48.808;8.820;2023-01-31T08:35:25;98111.53;;;1.75;90.02
70968;BME280;58629;48.808;8.820;2023-01-31T08:37:50;98100.88;;;1.81;89.85
70968;BME280;58629;48.808;8.820;2023-01-31T08:40:16;98103.16;;;1.82;89.25
70968;BME280;58629;48.808;8.820;2023-01-31T08:42:41;98107.72;;;1.85;89.35
70968;BME280;58629;48.808;8.820;2023-01-31T08:45:07;98102.31;;;1.90;89.31
70968;BME280;58629;48.808;8.820;2023-01-31T08:47:32;98095.75;;;1.96;89.24
70968;BME280;58629;48.808;8.820;2023-01-31T08:49:58;98092.41;;;1.96;89.46
70968;BME280;58629;48.808;8.820;2023-01-31T08:52:23;98097.94;;;1.94;89.06
70968;BME280;58629;48.808;8.820;2023-01-31T08:54:48;98105.03;;;1.94;88.74
70968;BME280;58629;48.808;8.820;2023-01-31T08:57:14;98101.22;;;1.91;88.63
70968;BME280;58629;48.808;8.820;2023-01-31T08:59:39;98111.22;;;1.89;88.53
70968;BME280;58629;48.808;8.820;2023-01-31T09:02:04;98098.16;;;1.89;87.80
70968;BME280;58629;48.808;8.820;2023-01-31T09:04:30;98090.75;;;1.91;87.21
70968;BME280;58629;48.808;8.820;2023-01-31T09:06:55;98094.25;;;1.95;87.99
70968;BME280;58629;48.808;8.820;2023-01-31T09:09:20;98094.78;;;2.01;86.96
70968;BME280;58629;48.808;8.820;2023-01-31T09:11:46;98093.47;;;2.07;87.31
70968;BME280;58629;48.808;8.820;2023-01-31T09:14:11;98093.38;;;2.15;86.86
70968;BME280;58629;48.808;8.820;2023-01-31T09:16:37;98091.97;;;2.18;86.28
70968;BME280;58629;48.808;8.820;2023-01-31T09:19:02;98091.06;;;2.26;87.03
70968;BME280;58629;48.808;8.820;2023-01-31T09:21:27;98091.50;;;2.28;86.66
70968;BME280;58629;48.808;8.820;2023-01-31T09:23:57;98084.88;;;2.30;85.70
70968;BME280;58629;48.808;8.820;2023-01-31T09:26:23;98084.88;;;2.30;86.11
70968;BME280;58629;48.808;8.820;2023-01-31T09:28:49;98086.50;;;2.35;86.42
70968;BME280;58629;48.808;8.820;2023-01-31T09:31:17;98082.25;;;2.42;86.83
70968;BME280;58629;48.808;8.820;2023-01-31T09:33:43;98082.03;;;2.47;86.01
70968;BME280;58629;48.808;8.820;2023-01-31T09:36:13;98075.34;;;2.50;85.68
70968;BME280;58629;48.808;8.820;2023-01-31T09:38:42;98077.88;;;2.46;85.49
70968;BME280;58629;48.808;8.820;2023-01-31T09:44:24;98060.69;;;2.45;84.80
70968;BME280;58629;48.808;8.820;2023-01-31T09:47:15;98061.63;;;2.53;85.74
70968;BME280;58629;48.808;8.820;2023-01-31T09:49:52;98067.22;;;2.51;85.02
70968;BME280;58629;48.808;8.820;2023-01-31T09:52:22;98076.91;;;2.51;84.71
70968;BME280;58629;48.808;8.820;2023-01-31T09:54:48;98078.19;;;2.57;84.37
70968;BME280;58629;48.808;8.820;2023-01-31T09:57:25;98085.78;;;2.62;83.53
70968;BME280;58629;48.808;8.820;2023-01-31T10:02:50;98087.72;;;2.77;84.38
70968;BME280;58629;48.808;8.820;2023-01-31T10:05:36;98079.56;;;2.79;83.17
70968;BME280;58629;48.808;8.820;2023-01-31T10:10:46;98079.97;;;2.81;84.40
70968;BME280;58629;48.808;8.820;2023-01-31T10:13:20;98090.44;;;2.81;84.54
70968;BME280;58629;48.808;8.820;2023-01-31T10:18:54;98097.56;;;2.96;84.25
70968;BME280;58629;48.808;8.820;2023-01-31T10:21:44;98090.63;;;3.15;84.70
70968;BME280;58629;48.808;8.820;2023-01-31T10:24:24;98105.94;;;3.29;83.95
70968;BME280;58629;48.808;8.820;2023-01-31T10:27:01;98092.06;;;3.40;83.79
70968;BME280;58629;48.808;8.820;2023-01-31T10:29:43;98091.69;;;3.26;81.07
70968;BME280;58629;48.808;8.820;2023-01-31T10:32:33;98081.53;;;3.25;81.82
70968;BME280;58629;48.808;8.820;2023-01-31T10:35:18;98088.03;;;3.31;80.39
70968;BME280;58629;48.808;8.820;2023-01-31T10:37:59;98082.00;;;3.42;80.47
70968;BME280;58629;48.808;8.820;2023-01-31T10:41:12;98083.34;;;3.36;79.91
70968;BME280;58629;48.808;8.820;2023-01-31T10:43:43;98077.94;;;3.45;79.77
70968;BME280;58629;48.808;8.820;2023-01-31T10:46:13;98079.91;;;3.48;81.08
70968;BME280;58629;48.808;8.820;2023-01-31T10:48:41;98078.69;;;3.45;79.90
70968;BME280;58629;48.808;8.820;2023-01-31T10:51:52;98083.94;;;3.45;78.00
70968;BME280;58629;48.808;8.820;2023-01-31T10:54:41;98070.19;;;3.48;79.26
70968;BME280;58629;48.808;8.820;2023-01-31T10:57:14;98069.34;;;3.60;79.11
70968;BME280;58629;48.808;8.820;2023-01-31T10:59:44;98079.97;;;3.51;80.14
70968;BME280;58629;48.808;8.820;2023-01-31T11:02:21;98082.75;;;3.43;80.16
70968;BME280;58629;48.808;8.820;2023-01-31T11:04:50;98106.28;;;3.27;78.61
70968;BME280;58629;48.808;8.820;2023-01-31T11:07:17;98082.22;;;3.22;77.68
70968;BME280;58629;48.808;8.820;2023-01-31T11:09:50;98083.78;;;3.38;79.50
70968;BME280;58629;48.808;8.820;2023-01-31T11:12:51;98078.28;;;3.59;79.71
70968;BME280;58629;48.808;8.820;2023-01-31T11:15:42;98063.50;;;3.67;78.23
70968;BME280;58629;48.808;8.820;2023-01-31T11:21:28;98027.59;;;3.67;77.14
70968;BME280;58629;48.808;8.820;2023-01-31T11:24:04;98018.44;;;3.92;78.89
70968;BME280;58629;48.808;8.820;2023-01-31T11:26:36;98010.16;;;4.06;77.26
70968;BME280;58629;48.808;8.820;2023-01-31T11:29:09;97998.97;;;4.09;77.89
70968;BME280;58629;48.808;8.820;2023-01-31T11:31:39;97986.78;;;4.16;76.42
70968;BME280;58629;48.808;8.820;2023-01-31T11:34:23;97998.31;;;4.12;75.66
70968;BME280;58629;48.808;8.820;2023-01-31T11:37:05;97991.81;;;3.90;74.75
70968;BME280;58629;48.808;8.820;2023-01-31T11:39:37;97989.63;;;3.92;75.77
70968;BME280;58629;48.808;8.820;2023-01-31T11:42:09;97995.97;;;3.91;74.54
70968;BME280;58629;48.808;8.820;2023-01-31T11:44:36;97997.63;;;3.80;75.34
70968;BME280;58629;48.808;8.820;2023-01-31T11:47:10;98003.53;;;3.77;75.15
70968;BME280;58629;48.808;8.820;2023-01-31T11:49:48;98009.66;;;3.85;75.13
70968;BME280;58629;48.808;8.820;2023-01-31T11:52:38;98021.00;;;3.89;74.60
70968;BME280;58629;48.808;8.820;2023-01-31T11:55:16;98038.44;;;3.66;75.50
70968;BME280;58629;48.808;8.820;2023-01-31T11:57:42;98026.19;;;3.70;74.74
70968;BME280;58629;48.808;8.820;2023-01-31T12:02:53;98000.00;;;3.54;76.32
70968;BME280;58629;48.808;8.820;2023-01-31T12:05:34;98013.81;;;3.39;76.69
70968;BME280;58629;48.808;8.820;2023-01-31T12:11:30;97988.06;;;3.57;77.76
70968;BME280;58629;48.808;8.820;2023-01-31T12:14:18;97981.16;;;3.64;77.19
70968;BME280;58629;48.808;8.820;2023-01-31T12:16:46;97969.75;;;3.72;75.44
70968;BME280;58629;48.808;8.820;2023-01-31T12:27:24;97949.13;;;3.55;75.63
70968;BME280;58629;48.808;8.820;2023-01-31T12:30:20;97953.78;;;3.46;75.12
70968;BME280;58629;48.808;8.820;2023-01-31T12:35:42;97955.66;;;3.14;76.73
70968;BME280;58629;48.808;8.820;2023-01-31T12:41:17;97938.34;;;3.10;76.70
70968;BME280;58629;48.808;8.820;2023-01-31T12:52:13;97942.22;;;3.16;77.56
70968;BME280;58629;48.808;8.820;2023-01-31T12:57:24;97931.41;;;3.33;76.89
70968;BME280;58629;48.808;8.820;2023-01-31T13:03:43;97912.75;;;3.34;77.47
70968;BME280;58629;48.808;8.820;2023-01-31T13:06:21;97910.38;;;3.45;75.48
70968;BME280;58629;48.808;8.820;2023-01-31T13:09:04;97910.47;;;3.48;75.91
70968;BME280;58629;48.808;8.820;2023-01-31T13:11:40;97903.97;;;3.42;74.75
70968;BME280;58629;48.808;8.820;2023-01-31T13:14:14;97895.94;;;3.35;77.01
70968;BME280;58629;48.808;8.820;2023-01-31T13:16:43;97894.09;;;3.36;75.11
70968;BME280;58629;48.808;8.820;2023-01-31T13:19:16;97886.66;;;3.38;74.06
70968;BME280;58629;48.808;8.820;2023-01-31T13:21:44;97881.00;;;3.36;74.64
70968;BME280;58629;48.808;8.820;2023-01-31T13:24:18;97871.75;;;3.58;74.24
70968;BME280;58629;48.808;8.820;2023-01-31T13:26:48;97882.09;;;3.50;75.42
70968;BME280;58629;48.808;8.820;2023-01-31T13:29:23;97877.09;;;3.45;75.02
70968;BME280;58629;48.808;8.820;2023-01-31T13:31:58;97876.44;;;3.48;74.13
70968;BME280;58629;48.808;8.820;2023-01-31T13:34:34;97876.19;;;3.38;75.01
70968;BME280;58629;48.808;8.820;2023-01-31T13:37:13;97874.06;;;3.43;74.76
70968;BME280;58629;48.808;8.820;2023-01-31T13:39:48;97876.09;;;3.50;74.58
70968;BME280;58629;48.808;8.820;2023-01-31T13:42:14;97884.34;;;3.52;75.49
70968;BME280;58629;48.808;8.820;2023-01-31T13:44:41;97882.16;;;3.54;75.53
70968;BME280;58629;48.808;8.820;2023-01-31T13:47:26;97881.53;;;3.61;75.99
70968;BME280;58629;48.808;8.820;2023-01-31T13:54:57;97874.50;;;3.65;74.80
70968;BME280;58629;48.808;8.820;2023-01-31T13:57:28;97873.84;;;3.68;76.00
70968;BME280;58629;48.808;8.820;2023-01-31T14:00:09;97860.41;;;3.69;75.05
70968;BME280;58629;48.808;8.820;2023-01-31T14:10:50;97855.09;;;3.66;76.15
70968;BME280;58629;48.808;8.820;2023-01-31T14:16:00;97836.47;;;3.71;75.63
70968;BME280;58629;48.808;8.820;2023-01-31T14:21:42;97828.91;;;3.85;75.91
70968;BME280;58629;48.808;8.820;2023-01-31T14:24:17;97830.28;;;3.79;75.33
70968;BME280;58629;48.808;8.820;2023-01-31T14:31:44;97811.94;;;3.79;76.12
70968;BME280;58629;48.808;8.820;2023-01-31T14:34:20;97801.78;;;3.96;75.56
70968;BME280;58629;48.808;8.820;2023-01-31T14:39:24;97810.44;;;3.78;75.17
70968;BME280;58629;48.808;8.820;2023-01-31T14:42:13;97808.72;;;3.85;75.65
70968;BME280;58629;48.808;8.820;2023-01-31T14:45:10;97814.72;;;3.86;76.08
70968;BME280;58629;48.808;8.820;2023-01-31T14:58:58;97823.47;;;3.74;76.42
70968;BME280;58629;48.808;8.820;2023-01-31T15:01:32;97816.63;;;3.70;77.26
70968;BME280;58629;48.808;8.820;2023-01-31T15:03:59;97824.84;;;3.68;78.03
70968;BME280;58629;48.808;8.820;2023-01-31T15:06:27;97817.13;;;3.75;77.46
70968;BME280;58629;48.808;8.820;2023-01-31T15:11:53;97828.06;;;3.81;77.61
70968;BME280;58629;48.808;8.820;2023-01-31T15:14:33;97830.28;;;3.79;77.94
70968;BME280;58629;48.808;8.820;2023-01-31T15:20:01;97837.72;;;3.77;78.11
70968;BME280;58629;48.808;8.820;2023-01-31T15:22:29;97837.59;;;3.70;78.24
70968;BME280;58629;48.808;8.820;2023-01-31T15:24:56;97837.78;;;3.61;79.20